createdAt,value
2022-07-31T00:00:43.103Z,16.50
2022-07-31T00:03:10.337Z,16.50
2022-07-31T00:05:38.732Z,16.50
2022-07-31T00:08:08.935Z,16.50
2022-07-31T00:10:35.675Z,16.40
2022-07-31T00:13:02.383Z,16.30
2022-07-31T00:15:29.209Z,16.40
2022-07-31T00:17:55.929Z,16.30
2022-07-31T00:20:22.619Z,16.30
2022-07-31T00:22:50.239Z,16.30
2022-07-31T00:25:17.718Z,16.20
2022-07-31T00:27:44.744Z,16.20
2022-07-31T00:30:16.764Z,16.20
2022-07-31T00:32:43.899Z,16.30
2022-07-31T00:35:12.496Z,16.30
2022-07-31T00:37:40.121Z,16.30
2022-07-31T00:40:09.586Z,16.30
2022-07-31T00:42:36.327Z,16.30
2022-07-31T00:45:03.234Z,16.40
2022-07-31T00:47:32.432Z,16.40
2022-07-31T00:49:59.157Z,16.40
2022-07-31T00:52:25.898Z,16.30
2022-07-31T00:54:52.548Z,16.40
2022-07-31T00:57:19.289Z,16.40
2022-07-31T00:59:45.959Z,16.30
2022-07-31T01:02:12.689Z,16.40
2022-07-31T01:04:41.823Z,16.30
2022-07-31T01:07:11.294Z,16.30
2022-07-31T01:09:38.089Z,16.30
2022-07-31T01:12:13.615Z,16.40
2022-07-31T01:14:45.896Z,16.50
2022-07-31T01:17:13.275Z,16.50
2022-07-31T01:19:44.417Z,16.50
2022-07-31T01:22:33.761Z,16.60
2022-07-31T01:25:32.996Z,16.60
2022-07-31T01:28:07.012Z,16.70
2022-07-31T01:30:39.902Z,16.70
2022-07-31T01:33:13.926Z,16.70
2022-07-31T01:35:45.177Z,16.80
2022-07-31T01:38:17.053Z,16.80
2022-07-31T01:40:47.163Z,16.80
2022-07-31T01:43:22.258Z,16.80
2022-07-31T01:45:54.168Z,16.60
2022-07-31T01:48:22.516Z,16.60
2022-07-31T01:50:52.548Z,16.60
2022-07-31T01:53:22.386Z,16.50
2022-07-31T01:55:56.406Z,16.60
2022-07-31T01:58:34.818Z,16.60
2022-07-31T02:01:03.839Z,16.60
2022-07-31T02:03:44.449Z,16.60
2022-07-31T02:06:18.682Z,16.60
2022-07-31T02:08:47.473Z,16.70
2022-07-31T02:11:17.921Z,16.70
2022-07-31T02:13:46.707Z,16.60
2022-07-31T02:16:14.845Z,16.60
2022-07-31T02:18:42.841Z,16.50
2022-07-31T02:21:09.872Z,16.50
2022-07-31T02:23:38.319Z,16.40
2022-07-31T02:26:07.001Z,16.40
2022-07-31T02:28:37.852Z,16.40
2022-07-31T02:31:09.512Z,16.40
2022-07-31T02:33:38.143Z,16.40
2022-07-31T02:36:06.565Z,16.40
2022-07-31T02:38:35.109Z,16.40
2022-07-31T02:41:04.931Z,16.30
2022-07-31T02:43:34.864Z,16.40
2022-07-31T02:46:02.387Z,16.40
2022-07-31T02:48:29.423Z,16.50
2022-07-31T02:50:57.055Z,16.40
2022-07-31T02:53:24.385Z,16.40
2022-07-31T02:55:51.644Z,16.40
2022-07-31T02:58:18.323Z,16.40
2022-07-31T03:00:45.800Z,16.30
2022-07-31T03:03:12.664Z,16.30
2022-07-31T03:05:39.530Z,16.30
2022-07-31T03:08:06.284Z,16.20
2022-07-31T03:10:32.945Z,16.30
2022-07-31T03:13:02.537Z,16.30
2022-07-31T03:15:30.509Z,16.30
2022-07-31T03:17:58.362Z,16.40
2022-07-31T03:20:27.157Z,16.50
2022-07-31T03:22:54.120Z,16.50
2022-07-31T03:25:22.092Z,16.60
2022-07-31T03:27:56.766Z,16.50
2022-07-31T03:30:27.194Z,16.60
2022-07-31T03:32:57.633Z,16.60
2022-07-31T03:35:24.946Z,16.60
2022-07-31T03:37:51.750Z,16.60
2022-07-31T03:40:18.737Z,16.70
2022-07-31T03:42:47.458Z,16.70
2022-07-31T03:45:14.734Z,16.60
2022-07-31T03:47:41.566Z,16.70
2022-07-31T03:50:09.404Z,16.70
2022-07-31T03:52:36.906Z,16.70
2022-07-31T03:55:04.033Z,16.60
2022-07-31T03:57:31.364Z,16.60
2022-07-31T04:00:02.429Z,16.50
2022-07-31T04:02:31.676Z,16.60
2022-07-31T04:04:58.790Z,16.60
2022-07-31T04:07:25.784Z,16.60
2022-07-31T04:09:52.571Z,16.60
2022-07-31T04:12:19.331Z,16.60
2022-07-31T04:14:46.097Z,16.60
2022-07-31T04:17:13.145Z,16.60
2022-07-31T04:19:39.789Z,16.50
2022-07-31T04:22:07.303Z,16.50
2022-07-31T04:24:34.335Z,16.50
2022-07-31T04:27:01.404Z,16.60
2022-07-31T04:29:29.448Z,16.60
2022-07-31T04:31:56.557Z,16.60
2022-07-31T04:34:23.299Z,16.60
2022-07-31T04:36:50.013Z,16.60
2022-07-31T04:39:17.007Z,16.70
2022-07-31T04:41:44.197Z,16.80
2022-07-31T04:44:10.881Z,16.90
2022-07-31T04:46:37.942Z,17.00
2022-07-31T04:49:05.754Z,16.90
2022-07-31T04:51:32.428Z,16.90
2022-07-31T04:53:59.103Z,17.00
2022-07-31T04:56:37.294Z,17.00
2022-07-31T04:59:06.408Z,17.00
2022-07-31T05:01:33.634Z,17.00
2022-07-31T05:04:01.276Z,17.10
2022-07-31T05:06:43.579Z,17.10
2022-07-31T05:09:19.605Z,17.20
2022-07-31T05:11:52.311Z,17.20
2022-07-31T05:14:20.981Z,17.30
2022-07-31T05:16:48.589Z,17.30
2022-07-31T05:19:15.735Z,17.40
2022-07-31T05:21:53.208Z,17.40
2022-07-31T05:24:33.848Z,17.40
2022-07-31T05:27:02.079Z,17.50
2022-07-31T05:29:29.096Z,17.60
2022-07-31T10:39:58.590Z,17.70
2022-07-31T10:42:43.885Z,25.50
2022-07-31T10:45:14.008Z,25.60
2022-07-31T10:47:40.836Z,25.70
2022-07-31T10:50:26.909Z,25.50
2022-07-31T10:52:57.417Z,25.60
2022-07-31T10:55:27.360Z,25.70
2022-07-31T10:57:56.147Z,25.70
2022-07-31T11:00:28.293Z,25.80
2022-07-31T11:02:56.600Z,26.10
2022-07-31T11:05:23.680Z,26.40
2022-07-31T11:08:05.013Z,26.50
2022-07-31T11:10:33.996Z,26.50
2022-07-31T11:13:06.088Z,26.20
2022-07-31T11:15:33.763Z,25.90
2022-07-31T11:18:21.268Z,25.90
2022-07-31T11:21:17.846Z,26.00
2022-07-31T11:23:56.063Z,26.10
2022-07-31T11:26:33.002Z,26.20
2022-07-31T11:29:59.901Z,26.30
2022-07-31T11:31:54.132Z,26.30
2022-07-31T11:34:20.821Z,26.00
2022-07-31T11:55:09.363Z,26.30
2022-07-31T11:57:50.942Z,27.30
2022-07-31T12:00:26.453Z,27.30
2022-07-31T12:02:56.167Z,27.10
2022-07-31T12:05:37.630Z,27.30
2022-07-31T12:18:03.000Z,27.40
2022-07-31T12:20:35.904Z,27.80
2022-07-31T12:23:05.949Z,27.80
2022-07-31T12:25:43.268Z,27.80
2022-07-31T12:28:12.843Z,27.40
2022-07-31T12:30:39.744Z,27.40
2022-07-31T12:33:10.945Z,27.30
2022-07-31T12:35:55.747Z,27.10
2022-07-31T12:38:41.099Z,27.10
2022-07-31T12:41:12.120Z,27.40
2022-07-31T12:43:39.090Z,27.90
2022-07-31T12:46:20.183Z,28.10
2022-07-31T12:48:46.946Z,27.60
2022-07-31T12:51:13.746Z,27.10
2022-07-31T12:53:40.412Z,27.00
2022-07-31T12:56:11.641Z,26.80
2022-07-31T12:58:38.282Z,26.80
2022-07-31T13:01:04.972Z,27.00
2022-07-31T13:03:46.092Z,27.40
2022-07-31T13:06:14.051Z,27.20
2022-07-31T13:08:43.619Z,27.10
2022-07-31T13:11:10.435Z,27.00
2022-07-31T13:13:37.059Z,27.00
2022-07-31T13:16:03.829Z,26.90
2022-07-31T13:18:45.085Z,26.90
2022-07-31T13:21:11.786Z,27.50
2022-07-31T13:23:38.452Z,27.40
2022-07-31T13:26:05.113Z,27.40
2022-07-31T13:28:31.755Z,27.60
2022-07-31T13:30:58.409Z,28.10
2022-07-31T13:33:25.112Z,28.90
2022-07-31T13:35:51.769Z,28.90
2022-07-31T13:38:18.451Z,28.90
2022-07-31T13:41:03.668Z,28.20
2022-07-31T13:43:30.383Z,27.70
2022-07-31T13:45:57.088Z,27.50
2022-07-31T13:48:23.751Z,27.80
2022-07-31T13:50:50.399Z,27.90
2022-07-31T13:53:17.063Z,28.00
2022-07-31T13:55:48.389Z,28.10
2022-07-31T13:58:16.662Z,28.50
2022-07-31T14:00:43.391Z,28.90
2022-07-31T14:03:10.015Z,29.10
2022-07-31T14:05:40.112Z,29.10
2022-07-31T14:08:32.999Z,28.90
2022-07-31T14:10:54.079Z,28.70
2022-07-31T14:13:20.758Z,28.80
2022-07-31T14:15:48.277Z,29.00
2022-07-31T14:18:15.058Z,29.00
2022-07-31T14:20:42.087Z,28.60
2022-07-31T14:23:09.338Z,28.00
2022-07-31T14:25:39.761Z,27.70
2022-07-31T14:28:07.900Z,28.10
2022-07-31T14:30:35.473Z,28.20
2022-07-31T14:33:02.553Z,28.30
2022-07-31T14:35:29.210Z,28.00
2022-07-31T14:37:55.850Z,27.90
2022-07-31T14:40:22.551Z,27.90
2022-07-31T14:42:49.275Z,27.90
2022-07-31T14:45:15.983Z,28.70
2022-07-31T14:47:45.041Z,30.10
2022-07-31T14:50:14.813Z,31.80
2022-07-31T14:52:45.638Z,32.90
2022-07-31T14:55:12.319Z,33.00
2022-07-31T14:57:39.213Z,33.40
2022-07-31T15:00:12.937Z,32.50
2022-07-31T15:02:42.012Z,31.30
2022-07-31T15:06:48.659Z,30.20
2022-07-31T15:07:56.140Z,30.30
2022-07-31T15:10:22.875Z,30.70
2022-07-31T15:12:50.978Z,30.10
2022-07-31T15:15:17.658Z,30.00
2022-07-31T15:17:44.323Z,30.40
2022-07-31T15:20:11.373Z,30.60
2022-07-31T15:22:38.046Z,30.80
2022-07-31T15:25:05.059Z,31.60
2022-07-31T15:27:31.713Z,32.20
2022-07-31T15:30:05.196Z,31.90
2022-07-31T15:42:38.210Z,32.00
2022-07-31T15:45:16.379Z,32.20
2022-07-31T15:52:40.473Z,32.50
2022-07-31T15:55:08.764Z,33.00
2022-07-31T15:57:36.064Z,32.30
2022-07-31T16:00:04.607Z,31.50
2022-07-31T16:02:31.621Z,31.40
2022-07-31T16:05:11.894Z,30.70
2022-07-31T16:08:28.665Z,30.20
2022-07-31T16:10:35.313Z,29.90
2022-07-31T16:13:02.033Z,29.50
2022-07-31T16:15:28.639Z,29.10
2022-07-31T16:17:55.294Z,28.80
2022-07-31T16:20:26.755Z,28.70
2022-07-31T16:23:01.629Z,28.70
2022-07-31T16:25:30.154Z,28.70
2022-07-31T16:27:59.391Z,28.40
2022-07-31T16:30:27.288Z,28.20
2022-07-31T16:32:54.908Z,27.90
2022-07-31T16:35:22.034Z,28.10
2022-07-31T16:37:51.402Z,28.40
2022-07-31T16:40:30.880Z,28.70
2022-07-31T16:43:49.729Z,28.80
2022-07-31T16:54:10.048Z,28.90
2022-07-31T16:56:07.619Z,28.80
2022-07-31T16:58:34.792Z,28.30
2022-07-31T17:01:03.843Z,28.20
2022-07-31T17:03:58.574Z,28.80
2022-07-31T17:06:17.438Z,29.40
2022-07-31T17:08:44.311Z,29.60
2022-07-31T17:11:10.948Z,29.40
2022-07-31T17:13:37.644Z,28.80
2022-07-31T17:16:04.687Z,28.40
2022-07-31T17:18:31.359Z,27.90
2022-07-31T17:20:59.637Z,27.50
2022-07-31T17:23:43.378Z,27.30
2022-07-31T17:26:21.225Z,27.20
2022-07-31T17:28:49.559Z,26.90
2022-07-31T17:31:16.282Z,26.70
2022-07-31T17:33:58.567Z,26.50
2022-07-31T17:36:28.902Z,26.30
2022-07-31T17:38:56.669Z,26.20
2022-07-31T17:41:25.365Z,26.20
2022-07-31T17:43:54.127Z,26.20
2022-07-31T17:46:22.075Z,26.20
2022-07-31T17:49:01.740Z,26.20
2022-07-31T17:51:28.543Z,26.10
2022-07-31T17:53:59.630Z,26.20
2022-07-31T17:56:26.890Z,26.40
2022-07-31T17:58:53.879Z,26.50
2022-07-31T18:01:22.479Z,26.40
2022-07-31T18:03:51.205Z,26.40
2022-07-31T18:06:17.856Z,26.20
2022-07-31T18:08:44.520Z,26.20
2022-07-31T18:11:11.217Z,26.10
2022-07-31T18:13:48.215Z,25.90
2022-07-31T18:16:17.560Z,25.80
2022-07-31T18:18:44.699Z,25.70
2022-07-31T18:21:12.007Z,25.60
2022-07-31T18:23:43.575Z,25.50
2022-07-31T18:26:14.256Z,25.40
2022-07-31T18:28:41.058Z,25.30
2022-07-31T18:31:32.140Z,25.20
2022-07-31T18:33:54.535Z,25.20
2022-07-31T18:36:21.301Z,25.00
2022-07-31T18:38:48.311Z,25.00
2022-07-31T18:41:15.076Z,24.90
2022-07-31T18:43:41.742Z,24.90
2022-07-31T18:46:08.426Z,24.80
2022-07-31T18:48:35.135Z,24.70
2022-07-31T18:51:04.834Z,24.70
2022-07-31T18:53:32.944Z,24.60
2022-07-31T18:55:59.705Z,24.50
2022-07-31T18:58:26.414Z,24.50
2022-07-31T19:00:55.293Z,24.40
2022-07-31T19:03:23.517Z,24.30
2022-07-31T19:05:52.761Z,24.30
2022-07-31T19:08:20.375Z,24.20
2022-07-31T19:10:49.145Z,24.20
2022-07-31T19:13:18.909Z,24.20
2022-07-31T19:15:52.747Z,24.20
2022-07-31T19:18:28.209Z,24.10
2022-07-31T19:21:19.048Z,24.10
2022-07-31T19:23:43.677Z,24.10
2022-07-31T19:26:10.431Z,24.10
2022-07-31T19:28:39.436Z,24.00
2022-07-31T19:31:06.799Z,24.00
2022-07-31T19:33:33.545Z,24.00
2022-07-31T19:36:02.220Z,23.90
2022-07-31T19:38:31.678Z,23.90
2022-07-31T19:40:59.584Z,23.90
2022-07-31T19:43:26.682Z,23.80
2022-07-31T19:45:58.701Z,23.80
2022-07-31T19:48:44.959Z,23.80
2022-07-31T19:51:13.012Z,23.70
2022-07-31T19:53:39.781Z,23.70
2022-07-31T19:56:06.879Z,23.70
2022-07-31T19:58:35.022Z,23.60
2022-07-31T20:01:02.572Z,23.60
2022-07-31T20:03:29.495Z,23.50
2022-07-31T20:05:56.728Z,23.50
2022-07-31T20:08:23.699Z,23.40
2022-07-31T20:10:50.553Z,23.40
2022-07-31T20:13:18.508Z,23.30
2022-07-31T20:15:52.314Z,23.30
2022-07-31T20:18:27.181Z,23.20
2022-07-31T20:21:07.465Z,23.30
2022-07-31T20:23:38.451Z,23.30
2022-07-31T20:26:10.765Z,23.30
2022-07-31T20:28:40.189Z,23.30
2022-07-31T20:31:08.363Z,23.20
2022-07-31T20:33:56.497Z,23.20
2022-07-31T20:36:25.716Z,23.20
2022-07-31T20:38:52.452Z,23.20
2022-07-31T20:41:19.180Z,23.20
2022-07-31T20:43:45.888Z,23.10
2022-07-31T20:46:12.679Z,23.10
2022-07-31T20:48:39.430Z,23.10
2022-07-31T20:51:09.018Z,23.10
2022-07-31T20:53:35.756Z,23.10
2022-07-31T20:56:02.458Z,23.10
2022-07-31T20:58:29.181Z,23.00
2022-07-31T21:00:56.132Z,23.10
2022-07-31T21:03:23.274Z,23.00
2022-07-31T21:05:50.463Z,23.10
2022-07-31T21:08:17.899Z,23.00
2022-07-31T21:10:45.294Z,23.00
2022-07-31T21:13:12.067Z,23.00
2022-07-31T21:15:43.845Z,22.90
2022-07-31T21:18:16.168Z,22.90
2022-07-31T21:20:51.811Z,22.90
2022-07-31T21:23:27.207Z,22.90
2022-07-31T21:25:55.872Z,22.80
2022-07-31T21:28:24.790Z,22.80
2022-07-31T21:30:53.929Z,22.80
2022-07-31T21:33:20.746Z,22.80
2022-07-31T21:35:47.758Z,22.80
2022-07-31T21:38:15.644Z,22.70
2022-07-31T21:40:42.829Z,22.70
2022-07-31T21:43:10.055Z,22.70
2022-07-31T21:45:50.533Z,22.60
2022-07-31T21:48:25.367Z,22.60
2022-07-31T21:50:54.658Z,22.50
2022-07-31T21:53:22.021Z,22.50
2022-07-31T21:55:49.140Z,22.50
2022-07-31T21:58:16.106Z,22.40
2022-07-31T22:00:43.559Z,22.40
2022-07-31T22:03:10.305Z,22.40
2022-07-31T22:05:55.568Z,22.30
2022-07-31T22:08:22.683Z,22.30
2022-07-31T22:10:53.318Z,22.20
2022-07-31T22:13:20.444Z,22.10
2022-07-31T22:15:58.404Z,22.10
2022-07-31T22:18:28.865Z,22.10
2022-07-31T22:20:56.173Z,22.10
2022-07-31T22:23:23.161Z,22.20
2022-07-31T22:25:49.951Z,22.10
2022-07-31T22:28:21.302Z,22.20
2022-07-31T22:30:48.613Z,22.20
2022-07-31T22:33:15.424Z,22.20
2022-07-31T22:35:42.928Z,22.20
2022-07-31T22:38:11.528Z,22.20
2022-07-31T22:40:38.407Z,22.20
2022-07-31T22:44:11.587Z,22.20
2022-07-31T22:45:53.362Z,22.30
2022-07-31T22:48:21.676Z,22.30
2022-07-31T22:50:48.955Z,22.30
2022-07-31T22:53:15.749Z,22.20
2022-07-31T22:55:42.540Z,22.20
2022-07-31T22:58:11.241Z,22.20
2022-07-31T23:00:38.479Z,22.20
2022-07-31T23:03:12.772Z,22.20
2022-07-31T23:06:03.049Z,22.10
2022-07-31T23:08:26.063Z,22.10
2022-07-31T23:10:52.834Z,22.10
2022-07-31T23:13:19.464Z,22.00
2022-07-31T23:15:46.319Z,22.00
2022-07-31T23:18:13.039Z,22.00
2022-07-31T23:20:39.785Z,22.00
2022-07-31T23:23:06.457Z,22.00
2022-07-31T23:25:33.103Z,21.90
2022-07-31T23:27:59.816Z,21.90
2022-07-31T23:30:27.466Z,21.80
2022-07-31T23:32:55.264Z,21.90
2022-07-31T23:35:21.974Z,21.80
2022-07-31T23:37:48.680Z,21.80
2022-07-31T23:40:15.402Z,21.80
2022-07-31T23:42:42.059Z,21.80
2022-07-31T23:45:12.360Z,21.80
2022-07-31T23:47:46.134Z,21.80
2022-07-31T23:50:15.211Z,21.80
2022-07-31T23:52:43.710Z,21.80
2022-07-31T23:55:10.676Z,21.80
2022-07-31T23:57:37.847Z,21.70
